Hill Air Force Base
KHIF : now visible

Airfield :











YOU CAN JOIN US ON...

 
LOGIN :

Register | Disclaimer

   EN    FR    IT 

 









Legend :    VFR   Marginal VFR   IFR   Intensive IFR   Very Intensive IFR
Visi :
Ceiling :
>= 8 km
>= 3000ft
5 to 8 km
1000 to 3000 ft
1500m to 5 km
500 to 1000 ft
800 to 1500m
200 to 500 ft
< 800m
< 200 ft
Symbols :   Thunderstorms  Fog  Heavy snow  Heavy precipitations  Wind > 20 kt






- Airport Elevation : 4789 ft


KHIF - Hill Air Force Base

CURRENT METAR :
  • 080658Z AUTO 17006KT 10SM BKN065 OVC080 01/01 A2994 RMK AO2 UPB11E24 SLP141 P0000 T00130006 400441030 FZRANO $

EXPIRED METARs :
  • 080624Z AUTO 00000KT 9SM OVC070 01/00 A2995 RMK AO2 UPB11E24 SLP144 FZRANO $
  • 080611Z AUTO 04004KT 9SM -UP OVC070 00/00 A2995 RMK AO2 UPB11 SLP151 FZRANO $
  • 080558Z AUTO 00000KT 9SM FEW055 OVC075 01/00 A2995 RMK AO2 SLP148 T00050002 10038 21001 57011 FZRANO $
  • 080458Z AUTO 22004KT 7SM SCT065 00/00 A2996 RMK AO2 VIS 1 3/4 RWY32 SLP154 T10011005 FZRANO $

TAF TAF KHIF
Valid from the 07 at 22:00 until the 09 at 04:00 UTC


072200Z 0722/0904 13004KT 9999 SCT050 QNH2999INS
BECMG 0802/0803 11006KT 4800 BR FEW050 QNH2994INS
BECMG 0808/0809 19009KT 8000 -RA BKN025 OVC060 620259 QNH2991INS
BECMG 0814/0815 23006KT 4800 BR OVC010 620109 QNH2992INS
TEMPO 0815/0901 VRB03KT 0800 FG OVC002 620029 TX04/0722Z TN02/0804Z LAST NO AMDS AFT 0800 NEXT 0814



MET'MAP, your aeronautical weather chart ! - Copyright ORBIFLY December 2007 - Disclaimer

ORBIFLY MET'MAP TEAM :

Programming & Development : Alexandra Zaïnal
Concept & original design : Baudouin d'Aumeries
Assistance for programming : Marc-Olivier Méhu
Technical & hardware support : Manuel Goepfert

Contact : metmap@orbifly.com




SOURCES & CREDITS :

   NOAA       Earth
Advisory